LJLJ Airport Information

Runway Information
Runway 13 Length 10827 ft width 148 ft
Elevation 1273 ft Threshold 0 ft Heading 126
Runway 31 Length 10827 ft Width 148 ft
Elevation 1191 ft Threshold 0 ft Heading 306
Airport Frequencies
Type A/D Name APP Frequency 135.275 MHZ
Type ATIS Name also on VO Frequency 128.175 MHZ
Type GND Name Frequency 121.625 MHZ
Type HANDLING & Name Frequency 131.4 MHZ
Type TWR Name TWR Frequency 118 MHZ
Airport Navaids
Type VOR-DME Name Dolsko Frequency 112700 KHZ
Type NDB Name Dolsko Frequency 328 KHZ
Type NDB Name Ljubljana Frequency 296 KHZ
Airport Weather Information & NOTAM
ADDS - METARS form results

(1523 UTC 26 February 2021)
Data provider http://aviationweather.gov/metar/data/
 
METAR text: LJLJ 261500Z 08002KT CAVOK 20/M00 Q1024 NOSIG
Conditions at: LJLJ (LJUBLJANA/BRNIK , SI) observed 1500 UTC 26 February 2021
Temperature: 20.0°C (68°F)
Dewpoint: 0.0°C (32°F) [RH = 26%]
Pressure (altimeter): 30.24 inches Hg (1024.0 mb)
Winds: from the E (80 degrees) at 2 MPH (2 knots; 1.0 m/s)
Visibility: 6 or more miles (10+ km)
Ceiling: ceiling and visibility are OK
Clouds: unknown
Weather: no significant weather observed at this time

METAR text: LJLJ 261430Z 07003KT 020V110 CAVOK 20/00 Q1024 NOSIG
Conditions at: LJLJ (LJUBLJANA/BRNIK , SI) observed 1430 UTC 26 February 2021
Temperature: 20.0°C (68°F)
Dewpoint: 0.0°C (32°F) [RH = 26%]
Pressure (altimeter): 30.24 inches Hg (1024.0 mb)
Winds: from the ENE (70 degrees) at 3 MPH (3 knots; 1.5 m/s)
Visibility: 6 or more miles (10+ km)
Ceiling: ceiling and visibility are OK
Clouds: unknown
Weather: no significant weather observed at this time

Forecast for: LJLJ (LJUBLJANA/BRNIK , SI)
Text: TAF LJLJ 261100Z 2612/2712 12005KT CAVOK
Forecast period: 1200 UTC 26 February 2021 to 1200 UTC 27 February 2021
Forecast type: FROM: standard forecast or significant change
Winds: from the ESE (120 degrees) at 6 MPH (5 knots; 2.6 m/s)
Visibility: 6 or more miles (10+ km)
Ceiling: unknown
Clouds: missing
Weather: NSW  (no significant weather)
Text: PROB30
Forecast period: 0600 to 0900 UTC 27 February 2021
Forecast type: TEMPORARY: The following changes expected for less than half the time period
Visibility: missing
Ceiling: unknown
Clouds: missing
Weather: -RA  (light rain)